sensor_id;sensor_type;location;lat;lon;timestamp;temperature;humidity
20479;DHT22;10398;52.490;13.434;2023-04-01T00:00:29;11.50;99.90
20479;DHT22;10398;52.490;13.434;2023-04-01T00:02:55;11.50;99.90
20479;DHT22;10398;52.490;13.434;2023-04-01T00:05:21;11.50;99.90
20479;DHT22;10398;52.490;13.434;2023-04-01T00:07:46;11.40;99.90
20479;DHT22;10398;52.490;13.434;2023-04-01T00:10:13;11.40;99.90
20479;DHT22;10398;52.490;13.434;2023-04-01T00:12:39;11.40;99.90
20479;DHT22;10398;52.490;13.434;2023-04-01T00:15:07;11.40;99.90
20479;DHT22;10398;52.490;13.434;2023-04-01T00:17:33;11.60;99.90
20479;DHT22;10398;52.490;13.434;2023-04-01T00:19:58;11.60;99.90
20479;DHT22;10398;52.490;13.434;2023-04-01T00:22:24;11.60;99.90
20479;DHT22;10398;52.490;13.434;2023-04-01T00:24:51;11.60;99.90
20479;DHT22;10398;52.490;13.434;2023-04-01T00:27:17;11.60;99.90
20479;DHT22;10398;52.490;13.434;2023-04-01T00:29:43;11.60;99.90
20479;DHT22;10398;52.490;13.434;2023-04-01T00:32:10;11.60;99.90
20479;DHT22;10398;52.490;13.434;2023-04-01T00:34:36;11.50;99.90
20479;DHT22;10398;52.490;13.434;2023-04-01T00:37:02;11.70;99.90
20479;DHT22;10398;52.490;13.434;2023-04-01T00:39:32;11.60;99.90
20479;DHT22;10398;52.490;13.434;2023-04-01T00:41:58;11.70;99.90
20479;DHT22;10398;52.490;13.434;2023-04-01T00:44:27;11.70;99.90
20479;DHT22;10398;52.490;13.434;2023-04-01T00:46:53;11.80;99.90
20479;DHT22;10398;52.490;13.434;2023-04-01T00:49:22;11.70;99.90
20479;DHT22;10398;52.490;13.434;2023-04-01T00:51:51;11.80;99.90
20479;DHT22;10398;52.490;13.434;2023-04-01T00:54:19;11.80;99.90
20479;DHT22;10398;52.490;13.434;2023-04-01T00:56:52;11.70;99.90
20479;DHT22;10398;52.490;13.434;2023-04-01T00:59:27;11.70;99.90
20479;DHT22;10398;52.490;13.434;2023-04-01T01:01:54;11.70;99.90
20479;DHT22;10398;52.490;13.434;2023-04-01T01:04:31;11.60;99.90
20479;DHT22;10398;52.490;13.434;2023-04-01T01:07:07;11.70;99.90
20479;DHT22;10398;52.490;13.434;2023-04-01T01:09:55;11.70;99.90
20479;DHT22;10398;52.490;13.434;2023-04-01T01:24:08;11.70;99.90
20479;DHT22;10398;52.490;13.434;2023-04-01T01:32:03;11.60;99.90
20479;DHT22;10398;52.490;13.434;2023-04-01T01:37:31;11.60;99.90
20479;DHT22;10398;52.490;13.434;2023-04-01T01:40:07;11.60;99.90
20479;DHT22;10398;52.490;13.434;2023-04-01T01:42:37;11.60;99.90
20479;DHT22;10398;52.490;13.434;2023-04-01T01:45:04;11.50;99.90
20479;DHT22;10398;52.490;13.434;2023-04-01T01:47:32;11.50;99.90
20479;DHT22;10398;52.490;13.434;2023-04-01T01:49:59;11.50;99.90
20479;DHT22;10398;52.490;13.434;2023-04-01T01:52:27;11.50;99.90
20479;DHT22;10398;52.490;13.434;2023-04-01T01:54:56;11.70;99.90
20479;DHT22;10398;52.490;13.434;2023-04-01T01:57:31;11.70;99.90
20479;DHT22;10398;52.490;13.434;2023-04-01T02:00:10;11.70;99.90
20479;DHT22;10398;52.490;13.434;2023-04-01T02:02:42;11.80;99.90
20479;DHT22;10398;52.490;13.434;2023-04-01T02:05:11;11.80;99.90
20479;DHT22;10398;52.490;13.434;2023-04-01T02:07:43;11.70;99.90
20479;DHT22;10398;52.490;13.434;2023-04-01T02:10:12;11.80;99.90
20479;DHT22;10398;52.490;13.434;2023-04-01T02:12:38;11.90;99.90
20479;DHT22;10398;52.490;13.434;2023-04-01T02:15:09;12.00;99.90
20479;DHT22;10398;52.490;13.434;2023-04-01T02:17:41;12.10;99.90
20479;DHT22;10398;52.490;13.434;2023-04-01T02:20:16;12.10;99.90
20479;DHT22;10398;52.490;13.434;2023-04-01T02:22:46;12.10;99.90
20479;DHT22;10398;52.490;13.434;2023-04-01T02:25:15;12.10;99.90
20479;DHT22;10398;52.490;13.434;2023-04-01T02:27:44;12.20;99.90
20479;DHT22;10398;52.490;13.434;2023-04-01T02:30:13;12.30;99.90
20479;DHT22;10398;52.490;13.434;2023-04-01T02:32:39;12.40;99.90
20479;DHT22;10398;52.490;13.434;2023-04-01T02:35:10;12.40;99.90
20479;DHT22;10398;52.490;13.434;2023-04-01T02:37:37;12.30;99.90
20479;DHT22;10398;52.490;13.434;2023-04-01T02:40:05;12.40;99.90
20479;DHT22;10398;52.490;13.434;2023-04-01T02:42:35;12.40;99.90
20479;DHT22;10398;52.490;13.434;2023-04-01T02:45:01;12.40;99.90
20479;DHT22;10398;52.490;13.434;2023-04-01T02:47:27;12.40;99.90
20479;DHT22;10398;52.490;13.434;2023-04-01T02:49:52;12.40;99.90
20479;DHT22;10398;52.490;13.434;2023-04-01T02:52:27;12.40;99.90
20479;DHT22;10398;52.490;13.434;2023-04-01T02:54:53;12.40;99.90
20479;DHT22;10398;52.490;13.434;2023-04-01T02:57:19;12.30;99.90
20479;DHT22;10398;52.490;13.434;2023-04-01T02:59:45;12.30;99.90
20479;DHT22;10398;52.490;13.434;2023-04-01T03:02:11;12.10;99.90
20479;DHT22;10398;52.490;13.434;2023-04-01T03:04:37;12.10;99.90
20479;DHT22;10398;52.490;13.434;2023-04-01T03:07:02;12.00;99.90
20479;DHT22;10398;52.490;13.434;2023-04-01T03:09:28;12.10;99.90
20479;DHT22;10398;52.490;13.434;2023-04-01T03:11:54;12.10;99.90
20479;DHT22;10398;52.490;13.434;2023-04-01T03:14:20;12.10;99.90
20479;DHT22;10398;52.490;13.434;2023-04-01T03:16:46;12.10;99.90
20479;DHT22;10398;52.490;13.434;2023-04-01T03:19:11;12.10;99.90
20479;DHT22;10398;52.490;13.434;2023-04-01T03:21:37;12.10;99.90
20479;DHT22;10398;52.490;13.434;2023-04-01T03:24:03;12.20;99.90
20479;DHT22;10398;52.490;13.434;2023-04-01T03:26:29;12.20;99.90
20479;DHT22;10398;52.490;13.434;2023-04-01T03:28:55;12.10;99.90
20479;DHT22;10398;52.490;13.434;2023-04-01T03:31:21;12.00;99.90
20479;DHT22;10398;52.490;13.434;2023-04-01T03:33:46;12.00;99.90
20479;DHT22;10398;52.490;13.434;2023-04-01T03:36:12;12.10;99.90
20479;DHT22;10398;52.490;13.434;2023-04-01T03:38:42;12.00;99.90
20479;DHT22;10398;52.490;13.434;2023-04-01T03:41:12;12.00;99.90
20479;DHT22;10398;52.490;13.434;2023-04-01T03:43:38;12.00;99.90
20479;DHT22;10398;52.490;13.434;2023-04-01T03:46:04;12.00;99.90
20479;DHT22;10398;52.490;13.434;2023-04-01T03:48:30;12.00;99.90
20479;DHT22;10398;52.490;13.434;2023-04-01T03:50:55;12.00;99.90
20479;DHT22;10398;52.490;13.434;2023-04-01T03:53:21;12.00;99.90
20479;DHT22;10398;52.490;13.434;2023-04-01T03:55:47;12.00;99.90
20479;DHT22;10398;52.490;13.434;2023-04-01T03:58:12;11.90;99.90
20479;DHT22;10398;52.490;13.434;2023-04-01T04:00:38;12.00;99.90
20479;DHT22;10398;52.490;13.434;2023-04-01T04:03:06;12.00;99.90
20479;DHT22;10398;52.490;13.434;2023-04-01T04:05:32;11.90;99.90
20479;DHT22;10398;52.490;13.434;2023-04-01T04:07:57;11.90;99.90
20479;DHT22;10398;52.490;13.434;2023-04-01T04:10:23;11.90;99.90
20479;DHT22;10398;52.490;13.434;2023-04-01T04:12:50;11.90;99.90
20479;DHT22;10398;52.490;13.434;2023-04-01T04:15:16;11.90;99.90
20479;DHT22;10398;52.490;13.434;2023-04-01T04:17:42;11.90;99.90
20479;DHT22;10398;52.490;13.434;2023-04-01T04:20:08;11.90;99.90
20479;DHT22;10398;52.490;13.434;2023-04-01T04:22:34;11.90;99.90
20479;DHT22;10398;52.490;13.434;2023-04-01T04:25:00;12.00;99.90
20479;DHT22;10398;52.490;13.434;2023-04-01T04:27:25;12.00;99.90
20479;DHT22;10398;52.490;13.434;2023-04-01T04:29:51;12.00;99.90
20479;DHT22;10398;52.490;13.434;2023-04-01T04:32:17;11.90;99.90
20479;DHT22;10398;52.490;13.434;2023-04-01T04:34:42;11.80;99.90
20479;DHT22;10398;52.490;13.434;2023-04-01T04:37:08;11.80;99.90
20479;DHT22;10398;52.490;13.434;2023-04-01T04:39:33;11.80;99.90
20479;DHT22;10398;52.490;13.434;2023-04-01T04:41:59;11.80;99.90
20479;DHT22;10398;52.490;13.434;2023-04-01T04:44:25;11.90;99.90
20479;DHT22;10398;52.490;13.434;2023-04-01T04:46:51;11.90;99.90
20479;DHT22;10398;52.490;13.434;2023-04-01T04:49:16;11.90;99.90
20479;DHT22;10398;52.490;13.434;2023-04-01T04:51:42;11.90;99.90
20479;DHT22;10398;52.490;13.434;2023-04-01T04:54:08;11.90;99.90
20479;DHT22;10398;52.490;13.434;2023-04-01T04:56:34;11.80;99.90
20479;DHT22;10398;52.490;13.434;2023-04-01T04:59:01;11.80;99.90
20479;DHT22;10398;52.490;13.434;2023-04-01T05:01:27;11.80;99.90
20479;DHT22;10398;52.490;13.434;2023-04-01T05:03:52;11.80;99.90
20479;DHT22;10398;52.490;13.434;2023-04-01T05:06:20;11.90;99.90
20479;DHT22;10398;52.490;13.434;2023-04-01T05:08:46;11.80;99.90
20479;DHT22;10398;52.490;13.434;2023-04-01T05:11:15;11.80;99.90
20479;DHT22;10398;52.490;13.434;2023-04-01T05:13:41;11.80;99.90
20479;DHT22;10398;52.490;13.434;2023-04-01T05:16:12;11.80;99.90
20479;DHT22;10398;52.490;13.434;2023-04-01T05:18:39;11.80;99.90
20479;DHT22;10398;52.490;13.434;2023-04-01T05:21:07;11.70;99.90
20479;DHT22;10398;52.490;13.434;2023-04-01T05:23:33;11.70;99.90
20479;DHT22;10398;52.490;13.434;2023-04-01T05:26:06;11.70;99.90
20479;DHT22;10398;52.490;13.434;2023-04-01T05:28:32;11.70;99.90
20479;DHT22;10398;52.490;13.434;2023-04-01T05:31:02;11.70;99.90
20479;DHT22;10398;52.490;13.434;2023-04-01T05:33:29;11.60;99.90
20479;DHT22;10398;52.490;13.434;2023-04-01T05:35:55;11.60;99.90
20479;DHT22;10398;52.490;13.434;2023-04-01T05:38:21;11.70;99.90
20479;DHT22;10398;52.490;13.434;2023-04-01T05:40:46;11.70;99.90
20479;DHT22;10398;52.490;13.434;2023-04-01T05:43:12;11.70;99.90
20479;DHT22;10398;52.490;13.434;2023-04-01T05:45:38;11.80;99.90
20479;DHT22;10398;52.490;13.434;2023-04-01T05:48:04;11.80;99.90
20479;DHT22;10398;52.490;13.434;2023-04-01T05:50:30;11.80;99.90
20479;DHT22;10398;52.490;13.434;2023-04-01T05:52:56;11.80;99.90
20479;DHT22;10398;52.490;13.434;2023-04-01T05:55:21;11.90;99.90
20479;DHT22;10398;52.490;13.434;2023-04-01T05:57:47;11.80;99.90
20479;DHT22;10398;52.490;13.434;2023-04-01T06:00:15;11.90;99.90
20479;DHT22;10398;52.490;13.434;2023-04-01T06:02:41;11.90;99.90
20479;DHT22;10398;52.490;13.434;2023-04-01T06:05:20;11.90;99.90
20479;DHT22;10398;52.490;13.434;2023-04-01T06:07:47;11.90;99.90
20479;DHT22;10398;52.490;13.434;2023-04-01T06:10:18;11.90;99.90
20479;DHT22;10398;52.490;13.434;2023-04-01T06:15:39;11.80;99.90
20479;DHT22;10398;52.490;13.434;2023-04-01T06:18:31;11.80;99.90
20479;DHT22;10398;52.490;13.434;2023-04-01T06:21:22;11.70;99.90
20479;DHT22;10398;52.490;13.434;2023-04-01T06:26:25;11.80;99.90
20479;DHT22;10398;52.490;13.434;2023-04-01T06:45:36;11.70;99.90
20479;DHT22;10398;52.490;13.434;2023-04-01T06:51:17;11.80;99.90
20479;DHT22;10398;52.490;13.434;2023-04-01T06:56:49;11.80;99.90
20479;DHT22;10398;52.490;13.434;2023-04-01T06:59:19;11.80;99.90
20479;DHT22;10398;52.490;13.434;2023-04-01T07:01:59;11.70;99.90
20479;DHT22;10398;52.490;13.434;2023-04-01T07:04:35;11.80;99.90
20479;DHT22;10398;52.490;13.434;2023-04-01T07:07:15;11.80;99.90
20479;DHT22;10398;52.490;13.434;2023-04-01T07:09:50;11.80;99.90
20479;DHT22;10398;52.490;13.434;2023-04-01T07:15:09;11.90;99.90
20479;DHT22;10398;52.490;13.434;2023-04-01T07:17:39;12.00;99.90
20479;DHT22;10398;52.490;13.434;2023-04-01T07:22:45;12.00;99.90
20479;DHT22;10398;52.490;13.434;2023-04-01T07:25:24;12.00;99.90
20479;DHT22;10398;52.490;13.434;2023-04-01T07:27:56;12.00;99.90
20479;DHT22;10398;52.490;13.434;2023-04-01T07:30:25;11.90;99.90
20479;DHT22;10398;52.490;13.434;2023-04-01T07:35:52;12.00;99.90
20479;DHT22;10398;52.490;13.434;2023-04-01T07:44:19;12.00;99.90
20479;DHT22;10398;52.490;13.434;2023-04-01T07:46:59;12.10;99.90
20479;DHT22;10398;52.490;13.434;2023-04-01T07:55:24;12.30;99.90
20479;DHT22;10398;52.490;13.434;2023-04-01T07:58:32;12.40;99.90
20479;DHT22;10398;52.490;13.434;2023-04-01T08:01:01;12.50;99.90
20479;DHT22;10398;52.490;13.434;2023-04-01T08:06:32;12.60;99.90
20479;DHT22;10398;52.490;13.434;2023-04-01T08:15:10;12.90;99.90
20479;DHT22;10398;52.490;13.434;2023-04-01T08:23:38;13.10;99.90
20479;DHT22;10398;52.490;13.434;2023-04-01T08:26:00;13.20;99.90
20479;DHT22;10398;52.490;13.434;2023-04-01T08:28:32;13.20;99.90
20479;DHT22;10398;52.490;13.434;2023-04-01T08:31:12;13.30;99.90
20479;DHT22;10398;52.490;13.434;2023-04-01T08:33:40;13.30;99.90
20479;DHT22;10398;52.490;13.434;2023-04-01T08:36:11;13.30;99.90
20479;DHT22;10398;52.490;13.434;2023-04-01T08:39:02;13.20;99.90
20479;DHT22;10398;52.490;13.434;2023-04-01T08:41:48;13.10;99.90
20479;DHT22;10398;52.490;13.434;2023-04-01T08:50:19;12.50;99.90
20479;DHT22;10398;52.490;13.434;2023-04-01T08:56:20;12.20;99.90
20479;DHT22;10398;52.490;13.434;2023-04-01T09:10:36;12.10;99.90
20479;DHT22;10398;52.490;13.434;2023-04-01T09:13:12;12.10;99.90
20479;DHT22;10398;52.490;13.434;2023-04-01T09:19:00;12.00;99.90
20479;DHT22;10398;52.490;13.434;2023-04-01T09:24:14;11.80;99.90
20479;DHT22;10398;52.490;13.434;2023-04-01T09:30:03;11.70;99.90
20479;DHT22;10398;52.490;13.434;2023-04-01T09:38:08;11.70;99.90
20479;DHT22;10398;52.490;13.434;2023-04-01T09:46:35;11.70;99.90
20479;DHT22;10398;52.490;13.434;2023-04-01T09:54:39;11.60;99.90
20479;DHT22;10398;52.490;13.434;2023-04-01T09:57:28;11.50;99.90
20479;DHT22;10398;52.490;13.434;2023-04-01T10:00:18;11.50;99.90
20479;DHT22;10398;52.490;13.434;2023-04-01T10:11:37;11.40;99.90
20479;DHT22;10398;52.490;13.434;2023-04-01T10:26:19;12.10;99.90
20479;DHT22;10398;52.490;13.434;2023-04-01T10:40:17;13.00;99.90
20479;DHT22;10398;52.490;13.434;2023-04-01T10:46:41;13.10;99.90
20479;DHT22;10398;52.490;13.434;2023-04-01T10:52:23;13.30;99.90
20479;DHT22;10398;52.490;13.434;2023-04-01T11:01:04;13.10;99.90
20479;DHT22;10398;52.490;13.434;2023-04-01T11:09:37;13.00;99.90
20479;DHT22;10398;52.490;13.434;2023-04-01T11:15:21;12.40;99.90
20479;DHT22;10398;52.490;13.434;2023-04-01T11:18:07;12.20;99.90
20479;DHT22;10398;52.490;13.434;2023-04-01T11:31:43;11.50;99.90
20479;DHT22;10398;52.490;13.434;2023-04-01T11:34:36;11.40;99.90
20479;DHT22;10398;52.490;13.434;2023-04-01T11:37:36;11.20;99.90
20479;DHT22;10398;52.490;13.434;2023-04-01T11:40:14;11.10;99.90
20479;DHT22;10398;52.490;13.434;2023-04-01T11:43:24;10.90;99.90
20479;DHT22;10398;52.490;13.434;2023-04-01T12:06:16;10.90;99.90
20479;DHT22;10398;52.490;13.434;2023-04-01T12:09:08;10.80;99.90
20479;DHT22;10398;52.490;13.434;2023-04-01T12:15:05;10.60;99.90
20479;DHT22;10398;52.490;13.434;2023-04-01T12:27:13;10.60;99.90
20479;DHT22;10398;52.490;13.434;2023-04-01T12:30:15;10.70;99.90
20479;DHT22;10398;52.490;13.434;2023-04-01T12:38:53;10.40;99.90
20479;DHT22;10398;52.490;13.434;2023-04-01T12:41:29;10.50;99.90
20479;DHT22;10398;52.490;13.434;2023-04-01T12:54:57;10.30;99.90
20479;DHT22;10398;52.490;13.434;2023-04-01T13:08:18;10.30;99.90
20479;DHT22;10398;52.490;13.434;2023-04-01T13:11:02;10.30;99.90
20479;DHT22;10398;52.490;13.434;2023-04-01T13:32:34;10.40;99.90
20479;DHT22;10398;52.490;13.434;2023-04-01T13:43:35;10.30;99.90
20479;DHT22;10398;52.490;13.434;2023-04-01T13:46:12;10.30;99.90
20479;DHT22;10398;52.490;13.434;2023-04-01T13:51:28;10.00;99.90
20479;DHT22;10398;52.490;13.434;2023-04-01T14:06:28;10.10;99.90
20479;DHT22;10398;52.490;13.434;2023-04-01T14:12:56;10.30;99.90
20479;DHT22;10398;52.490;13.434;2023-04-01T14:18:41;10.40;99.90
20479;DHT22;10398;52.490;13.434;2023-04-01T14:21:38;10.40;99.90
20479;DHT22;10398;52.490;13.434;2023-04-01T14:32:11;10.10;99.90
20479;DHT22;10398;52.490;13.434;2023-04-01T14:37:54;10.00;99.90
20479;DHT22;10398;52.490;13.434;2023-04-01T14:51:38;9.90;99.90
20479;DHT22;10398;52.490;13.434;2023-04-01T14:54:20;10.20;99.90
20479;DHT22;10398;52.490;13.434;2023-04-01T14:56:51;10.20;99.90
20479;DHT22;10398;52.490;13.434;2023-04-01T14:59:28;10.10;99.90
20479;DHT22;10398;52.490;13.434;2023-04-01T15:02:01;10.00;99.90
20479;DHT22;10398;52.490;13.434;2023-04-01T15:12:27;9.50;99.90
20479;DHT22;10398;52.490;13.434;2023-04-01T15:18:03;9.40;99.90
20479;DHT22;10398;52.490;13.434;2023-04-01T15:20:52;9.50;99.90
20479;DHT22;10398;52.490;13.434;2023-04-01T15:26:05;9.60;99.90
20479;DHT22;10398;52.490;13.434;2023-04-01T15:28:43;9.60;99.90
20479;DHT22;10398;52.490;13.434;2023-04-01T15:34:09;9.40;99.90
20479;DHT22;10398;52.490;13.434;2023-04-01T15:36:56;9.40;99.90
20479;DHT22;10398;52.490;13.434;2023-04-01T15:39:51;9.40;99.90
20479;DHT22;10398;52.490;13.434;2023-04-01T15:42:43;9.30;99.90
20479;DHT22;10398;52.490;13.434;2023-04-01T15:53:35;9.40;99.90
20479;DHT22;10398;52.490;13.434;2023-04-01T16:04:25;10.50;99.90
20479;DHT22;10398;52.490;13.434;2023-04-01T16:07:21;10.70;99.90
20479;DHT22;10398;52.490;13.434;2023-04-01T16:15:24;10.00;99.90
20479;DHT22;10398;52.490;13.434;2023-04-01T16:21:06;9.60;99.90
20479;DHT22;10398;52.490;13.434;2023-04-01T16:24:17;9.50;99.90
20479;DHT22;10398;52.490;13.434;2023-04-01T16:27:04;9.40;99.90
20479;DHT22;10398;52.490;13.434;2023-04-01T16:32:37;9.20;99.90
20479;DHT22;10398;52.490;13.434;2023-04-01T16:38:24;9.00;99.90
20479;DHT22;10398;52.490;13.434;2023-04-01T16:43:42;9.10;99.90
20479;DHT22;10398;52.490;13.434;2023-04-01T16:46:34;9.00;99.90
20479;DHT22;10398;52.490;13.434;2023-04-01T16:56:56;8.90;99.90
20479;DHT22;10398;52.490;13.434;2023-04-01T17:15:39;8.30;99.90
20479;DHT22;10398;52.490;13.434;2023-04-01T17:21:10;8.30;99.90
20479;DHT22;10398;52.490;13.434;2023-04-01T17:29:13;8.10;99.90
20479;DHT22;10398;52.490;13.434;2023-04-01T17:34:35;8.10;99.90
20479;DHT22;10398;52.490;13.434;2023-04-01T17:37:14;8.30;99.90
20479;DHT22;10398;52.490;13.434;2023-04-01T17:45:28;8.30;99.90
20479;DHT22;10398;52.490;13.434;2023-04-01T17:48:17;8.20;99.90
20479;DHT22;10398;52.490;13.434;2023-04-01T17:56:23;8.10;99.90
20479;DHT22;10398;52.490;13.434;2023-04-01T18:02:47;8.00;99.90
20479;DHT22;10398;52.490;13.434;2023-04-01T18:09:54;7.80;99.90
20479;DHT22;10398;52.490;13.434;2023-04-01T18:12:36;7.90;99.90
20479;DHT22;10398;52.490;13.434;2023-04-01T18:15:31;7.90;99.90
20479;DHT22;10398;52.490;13.434;2023-04-01T18:18:17;7.90;99.90
20479;DHT22;10398;52.490;13.434;2023-04-01T18:26:32;7.80;99.90
20479;DHT22;10398;52.490;13.434;2023-04-01T18:31:56;8.20;99.90
20479;DHT22;10398;52.490;13.434;2023-04-01T18:37:59;8.50;99.90
20479;DHT22;10398;52.490;13.434;2023-04-01T18:40:32;8.20;99.90
20479;DHT22;10398;52.490;13.434;2023-04-01T18:43:32;7.90;99.90
20479;DHT22;10398;52.490;13.434;2023-04-01T18:48:57;7.60;99.90
20479;DHT22;10398;52.490;13.434;2023-04-01T18:54:10;7.50;99.90
20479;DHT22;10398;52.490;13.434;2023-04-01T18:56:42;7.50;99.90
20479;DHT22;10398;52.490;13.434;2023-04-01T18:59:27;7.50;99.90
20479;DHT22;10398;52.490;13.434;2023-04-01T19:04:38;7.40;99.90
20479;DHT22;10398;52.490;13.434;2023-04-01T19:09:53;7.50;99.90
20479;DHT22;10398;52.490;13.434;2023-04-01T19:12:38;7.40;99.90
20479;DHT22;10398;52.490;13.434;2023-04-01T19:15:46;7.30;99.90
20479;DHT22;10398;52.490;13.434;2023-04-01T19:20:53;7.30;99.90
20479;DHT22;10398;52.490;13.434;2023-04-01T19:23:51;7.30;99.90
20479;DHT22;10398;52.490;13.434;2023-04-01T19:37:34;7.50;99.90
20479;DHT22;10398;52.490;13.434;2023-04-01T19:42:59;7.30;99.90
20479;DHT22;10398;52.490;13.434;2023-04-01T19:45:29;7.20;99.90
20479;DHT22;10398;52.490;13.434;2023-04-01T19:48:38;7.10;99.90
20479;DHT22;10398;52.490;13.434;2023-04-01T20:05:49;6.90;99.90
20479;DHT22;10398;52.490;13.434;2023-04-01T20:10:57;6.90;99.90
20479;DHT22;10398;52.490;13.434;2023-04-01T20:17:01;6.80;99.90
20479;DHT22;10398;52.490;13.434;2023-04-01T20:20:23;6.70;99.90
20479;DHT22;10398;52.490;13.434;2023-04-01T20:25:23;6.70;99.90
20479;DHT22;10398;52.490;13.434;2023-04-01T20:27:55;6.80;99.90
20479;DHT22;10398;52.490;13.434;2023-04-01T20:35:49;6.90;99.90
20479;DHT22;10398;52.490;13.434;2023-04-01T20:44:03;7.00;99.90
20479;DHT22;10398;52.490;13.434;2023-04-01T20:46:55;6.90;99.90
20479;DHT22;10398;52.490;13.434;2023-04-01T20:57:09;6.70;99.90
20479;DHT22;10398;52.490;13.434;2023-04-01T21:07:47;6.60;99.90
20479;DHT22;10398;52.490;13.434;2023-04-01T21:10:29;6.50;99.90
20479;DHT22;10398;52.490;13.434;2023-04-01T21:16:03;6.30;99.90
20479;DHT22;10398;52.490;13.434;2023-04-01T21:18:52;6.30;99.90
20479;DHT22;10398;52.490;13.434;2023-04-01T21:21:31;6.30;99.90
20479;DHT22;10398;52.490;13.434;2023-04-01T21:35:26;6.00;99.90
20479;DHT22;10398;52.490;13.434;2023-04-01T21:43:33;5.90;99.90
20479;DHT22;10398;52.490;13.434;2023-04-01T21:49:16;5.90;99.90
20479;DHT22;10398;52.490;13.434;2023-04-01T22:00:27;5.90;99.90
20479;DHT22;10398;52.490;13.434;2023-04-01T22:03:27;6.00;99.90
20479;DHT22;10398;52.490;13.434;2023-04-01T22:06:13;5.90;99.90
20479;DHT22;10398;52.490;13.434;2023-04-01T22:14:50;5.90;99.90
20479;DHT22;10398;52.490;13.434;2023-04-01T22:17:26;5.80;99.90
20479;DHT22;10398;52.490;13.434;2023-04-01T22:25:49;5.80;99.90
20479;DHT22;10398;52.490;13.434;2023-04-01T22:28:24;5.80;99.90
20479;DHT22;10398;52.490;13.434;2023-04-01T22:30:59;5.90;99.90
20479;DHT22;10398;52.490;13.434;2023-04-01T22:36:12;6.00;99.90
20479;DHT22;10398;52.490;13.434;2023-04-01T22:50:15;6.00;99.90
20479;DHT22;10398;52.490;13.434;2023-04-01T22:52:46;6.00;99.90
20479;DHT22;10398;52.490;13.434;2023-04-01T22:55:27;6.10;99.90
20479;DHT22;10398;52.490;13.434;2023-04-01T22:58:04;6.10;99.90
20479;DHT22;10398;52.490;13.434;2023-04-01T23:00:35;6.10;99.90
20479;DHT22;10398;52.490;13.434;2023-04-01T23:03:08;6.10;99.90
20479;DHT22;10398;52.490;13.434;2023-04-01T23:05:41;6.10;99.90
20479;DHT22;10398;52.490;13.434;2023-04-01T23:09:38;6.30;99.90
20479;DHT22;10398;52.490;13.434;2023-04-01T23:11:54;6.30;99.90
20479;DHT22;10398;52.490;13.434;2023-04-01T23:14:27;6.40;99.90
20479;DHT22;10398;52.490;13.434;2023-04-01T23:17:02;6.30;99.90
20479;DHT22;10398;52.490;13.434;2023-04-01T23:27:51;6.20;99.90
20479;DHT22;10398;52.490;13.434;2023-04-01T23:33:22;6.10;99.90
20479;DHT22;10398;52.490;13.434;2023-04-01T23:36:00;6.00;99.90
20479;DHT22;10398;52.490;13.434;2023-04-01T23:38:37;6.00;99.90
20479;DHT22;10398;52.490;13.434;2023-04-01T23:41:04;6.10;99.90
20479;DHT22;10398;52.490;13.434;2023-04-01T23:43:34;6.00;99.90
20479;DHT22;10398;52.490;13.434;2023-04-01T23:46:03;6.00;99.90
20479;DHT22;10398;52.490;13.434;2023-04-01T23:50:58;6.20;99.90
20479;DHT22;10398;52.490;13.434;2023-04-01T23:53:26;6.20;99.90
20479;DHT22;10398;52.490;13.434;2023-04-01T23:55:55;6.30;99.90
20479;DHT22;10398;52.490;13.434;2023-04-01T23:58:43;6.30;99.90
